Time;durP1;ratioP1;P1;durP2;ratioP2;P2;SDS_P1;SDS_P2;PMS_P1;PMS_P2;Temp;Humidity;BMP_temperature;BMP_pressure;BME280_temperature;BME280_humidity;BME280_pressure;Samples;Min_cycle;Max_cycle;Signal;HPM_P1;HPM_P2
2022/09/09 00:01:04;;;;;;;3.38;2.25;;;15.00;99.90;;;;;;4923438;29;20241;-91
2022/09/09 00:04:00;;;;;;;5.72;2.28;;;15.00;99.90;;;;;;4923944;29;20179;-91
2022/09/09 00:06:57;;;;;;;2.78;1.90;;;15.00;99.90;;;;;;4934184;29;20221;-91
2022/09/09 00:09:30;;;;;;;4.20;2.05;;;15.00;99.90;;;;;;4942069;29;20190;-94
2022/09/09 00:12:23;;;;;;;4.05;1.92;;;15.00;99.90;;;;;;4942606;29;20174;-91
2022/09/09 00:14:52;;;;;;;4.32;1.83;;;15.00;99.90;;;;;;5310395;23;20202;-80
2022/09/09 00:17:47;;;;;;;4.82;2.30;;;15.00;99.90;;;;;;4934369;29;20311;-80
2022/09/09 00:20:41;;;;;;;4.70;1.90;;;15.00;99.90;;;;;;4937643;29;20201;-81
2022/09/09 00:23:19;;;;;;;2.45;1.92;;;15.10;99.90;;;;;;4930593;29;20248;-81
2022/09/09 00:25:58;;;;;;;5.75;1.60;;;15.00;99.90;;;;;;4939043;29;20621;-80
2022/09/09 00:28:26;;;;;;;3.67;1.80;;;15.00;99.90;;;;;;4938023;28;20524;-80
2022/09/09 00:30:52;;;;;;;5.55;1.98;;;14.90;99.90;;;;;;4937179;29;20246;-81
2022/09/09 00:33:23;;;;;;;3.10;1.73;;;14.90;99.90;;;;;;4937137;29;20213;-81
2022/09/09 00:35:57;;;;;;;4.20;1.67;;;14.90;99.90;;;;;;4937523;29;20214;-81
2022/09/09 00:38:41;;;;;;;4.00;1.65;;;14.80;99.90;;;;;;4938818;29;20169;-81
2022/09/09 00:41:22;;;;;;;3.88;1.50;;;14.80;99.90;;;;;;4937413;28;20190;-81
2022/09/09 00:44:27;;;;;;;2.65;1.52;;;14.80;99.90;;;;;;4938217;29;20232;-81
2022/09/09 00:47:34;;;;;;;2.13;1.58;;;14.80;99.90;;;;;;4935664;29;20186;-81
2022/09/09 00:50:33;;;;;;;4.90;1.70;;;14.70;99.90;;;;;;4919225;29;20163;-81
2022/09/09 00:53:32;;;;;;;4.35;1.63;;;14.80;99.90;;;;;;4933360;29;20212;-81
2022/09/09 00:56:14;;;;;;;5.10;1.55;;;14.80;99.90;;;;;;4938242;29;20193;-81
2022/09/09 00:58:50;;;;;;;3.67;1.45;;;14.80;99.90;;;;;;4938388;29;20564;-81
2022/09/09 01:01:16;;;;;;;3.13;1.30;;;14.80;99.90;;;;;;4937824;29;20523;-81
2022/09/09 01:03:54;;;;;;;1.80;1.27;;;14.80;99.90;;;;;;4938049;29;20205;-81
2022/09/09 01:06:19;;;;;;;4.20;1.30;;;14.80;99.90;;;;;;4937979;29;20655;-81
2022/09/09 01:08:54;;;;;;;1.60;1.17;;;14.70;99.90;;;;;;4936688;29;20206;-81
2022/09/09 01:11:27;;;;;;;3.97;1.25;;;14.80;99.90;;;;;;4937756;29;20571;-80
2022/09/09 01:14:00;;;;;;;5.28;1.27;;;14.70;99.90;;;;;;4937881;29;20217;-81
2022/09/09 01:16:29;;;;;;;1.63;1.00;;;14.70;99.90;;;;;;4936206;29;20234;-81
2022/09/09 01:18:56;;;;;;;2.88;1.13;;;14.70;99.90;;;;;;4933016;29;20186;-81
2022/09/09 01:21:33;;;;;;;2.63;1.63;;;14.80;99.90;;;;;;4937629;29;20531;-81
2022/09/09 01:24:05;;;;;;;4.78;1.27;;;14.70;99.90;;;;;;4936314;29;20217;-81
2022/09/09 01:26:42;;;;;;;3.30;1.00;;;14.70;99.90;;;;;;4937729;29;20268;-81
2022/09/09 01:29:13;;;;;;;2.65;1.10;;;14.60;99.90;;;;;;4937566;29;20527;-81
2022/09/09 01:31:42;;;;;;;4.32;0.90;;;14.70;99.90;;;;;;4937085;29;20178;-81
2022/09/09 01:34:15;;;;;;;2.35;0.85;;;14.70;99.90;;;;;;4937328;29;20611;-81
2022/09/09 01:37:08;;;;;;;2.90;0.98;;;14.70;99.90;;;;;;4937521;29;20209;-81
2022/09/09 01:39:37;;;;;;;1.00;0.80;;;14.60;99.90;;;;;;4935072;29;20198;-80
2022/09/09 01:42:07;;;;;;;4.45;0.98;;;14.60;99.90;;;;;;4936127;29;20244;-80
2022/09/09 01:44:35;;;;;;;3.60;1.02;;;14.60;99.90;;;;;;4936712;29;20197;-81
2022/09/09 01:47:01;;;;;;;4.18;1.20;;;14.60;99.90;;;;;;4936641;29;20174;-80
2022/09/09 01:49:27;;;;;;;1.20;0.80;;;14.60;99.90;;;;;;4935878;29;20190;-80
2022/09/09 01:51:55;;;;;;;1.60;0.93;;;14.60;99.90;;;;;;4937057;28;20174;-81
2022/09/09 01:54:31;;;;;;;3.53;0.88;;;14.60;99.90;;;;;;4935503;29;20229;-81
2022/09/09 01:57:24;;;;;;;4.78;1.00;;;14.60;99.90;;;;;;4936320;29;20217;-80
2022/09/09 02:00:12;;;;;;;2.60;0.93;;;14.50;99.90;;;;;;4936654;29;20297;-81
2022/09/09 02:03:08;;;;;;;2.60;0.70;;;14.50;99.90;;;;;;4936560;29;20190;-81
2022/09/09 02:06:04;;;;;;;4.15;0.77;;;14.50;99.90;;;;;;4936854;29;20516;-80
2022/09/09 02:08:43;;;;;;;1.65;0.70;;;14.50;99.90;;;;;;4931155;29;20285;-81
2022/09/09 02:11:13;;;;;;;2.25;0.90;;;14.50;99.90;;;;;;4935237;29;20215;-80
2022/09/09 02:13:42;;;;;;;4.93;1.10;;;14.50;99.90;;;;;;4935293;29;20281;-80
2022/09/09 02:16:36;;;;;;;3.25;0.80;;;14.40;99.90;;;;;;4936515;29;20338;-81
2022/09/09 02:19:26;;;;;;;7.13;1.00;;;14.40;99.90;;;;;;4937840;29;20217;-80
2022/09/09 02:21:57;;;;;;;4.72;0.77;;;14.40;99.90;;;;;;4933836;29;20562;-80
2022/09/09 02:24:25;;;;;;;5.57;1.00;;;14.40;99.90;;;;;;4936462;29;20523;-81
2022/09/09 02:26:55;;;;;;;2.42;0.80;;;14.40;99.90;;;;;;4947135;29;20208;-81
2022/09/09 02:29:41;;;;;;;2.90;0.90;;;14.40;99.90;;;;;;4955210;28;20193;-80
2022/09/09 02:32:11;;;;;;;5.97;0.80;;;14.40;99.90;;;;;;4954571;29;20264;-81
2022/09/09 02:34:45;;;;;;;3.60;0.95;;;14.40;99.90;;;;;;4955319;29;20213;-80
2022/09/09 02:37:13;;;;;;;3.55;0.60;;;14.40;99.90;;;;;;4953424;28;20260;-81
2022/09/09 02:39:39;;;;;;;4.75;0.80;;;14.40;99.90;;;;;;4953808;29;20188;-80
2022/09/09 02:42:05;;;;;;;3.03;0.88;;;14.40;99.90;;;;;;4954615;29;20187;-80
2022/09/09 02:44:31;;;;;;;5.05;0.80;;;14.40;99.90;;;;;;4954734;28;20185;-81
2022/09/09 02:47:18;;;;;;;1.73;0.90;;;14.40;99.90;;;;;;4954664;28;20188;-80
2022/09/09 02:49:59;;;;;;;0.77;0.63;;;14.40;99.90;;;;;;4929486;29;20182;-80
2022/09/09 02:53:07;;;;;;;1.92;0.85;;;14.40;99.90;;;;;;4936299;29;20197;-80
2022/09/09 02:56:08;;;;;;;1.50;0.70;;;14.30;99.90;;;;;;4936104;29;20256;-81
2022/09/09 02:58:33;;;;;;;1.70;0.80;;;14.40;99.90;;;;;;4933739;29;20198;-80
2022/09/09 03:01:00;;;;;;;4.88;0.93;;;14.40;99.90;;;;;;4935610;29;20492;-80
2022/09/09 03:03:26;;;;;;;2.03;0.70;;;14.40;99.90;;;;;;4935729;29;20268;-81
2022/09/09 03:05:52;;;;;;;1.40;0.68;;;14.40;99.90;;;;;;4935905;29;20262;-80
2022/09/09 03:08:18;;;;;;;4.15;0.93;;;14.40;99.90;;;;;;4936284;29;20272;-80
2022/09/09 03:10:44;;;;;;;2.22;1.00;;;14.40;99.90;;;;;;4934497;29;20185;-80
2022/09/09 03:13:09;;;;;;;2.72;0.80;;;14.40;99.90;;;;;;4935827;29;20554;-80
2022/09/09 03:15:35;;;;;;;1.48;0.60;;;14.40;99.90;;;;;;4935965;29;20233;-79
2022/09/09 03:18:01;;;;;;;3.40;0.73;;;14.40;99.90;;;;;;4935661;29;20652;-81
2022/09/09 03:20:28;;;;;;;3.80;0.68;;;14.40;99.90;;;;;;4935721;29;20240;-82
2022/09/09 03:22:55;;;;;;;3.25;0.80;;;14.40;99.90;;;;;;4936280;29;20194;-80
2022/09/09 03:25:23;;;;;;;2.00;0.68;;;14.30;99.90;;;;;;4935871;29;20178;-81
2022/09/09 03:27:50;;;;;;;3.42;0.88;;;14.30;99.90;;;;;;4935752;29;20221;-81
2022/09/09 03:30:16;;;;;;;1.83;0.60;;;14.30;99.90;;;;;;4935586;29;20280;-80
2022/09/09 03:32:41;;;;;;;1.42;0.60;;;14.30;99.90;;;;;;4934303;29;20272;-80
2022/09/09 03:35:08;;;;;;;2.90;0.70;;;14.30;99.90;;;;;;4935885;29;20189;-80
2022/09/09 03:37:34;;;;;;;1.48;0.57;;;14.30;99.90;;;;;;4936020;29;20194;-80
2022/09/09 03:39:59;;;;;;;2.55;0.80;;;14.30;99.90;;;;;;4935531;29;20190;-80
2022/09/09 03:42:25;;;;;;;2.20;0.85;;;14.30;99.90;;;;;;4934766;29;20206;-81
2022/09/09 03:44:51;;;;;;;2.42;1.00;;;14.30;99.90;;;;;;4935162;29;20182;-79
2022/09/09 03:47:24;;;;;;;2.88;0.70;;;14.30;99.90;;;;;;4934421;29;20561;-80
2022/09/09 03:49:49;;;;;;;2.72;0.75;;;14.30;99.90;;;;;;4935649;29;20181;-80
2022/09/09 03:52:15;;;;;;;4.88;1.00;;;14.30;99.90;;;;;;4934356;29;20190;-83
2022/09/09 03:54:42;;;;;;;1.88;0.57;;;14.30;99.90;;;;;;4935220;29;20724;-80
2022/09/09 03:57:09;;;;;;;1.80;0.70;;;14.30;99.90;;;;;;4934115;29;20186;-80
2022/09/09 03:59:36;;;;;;;3.08;0.70;;;14.30;99.90;;;;;;4933657;29;20288;-82
2022/09/09 04:02:02;;;;;;;1.90;0.68;;;14.30;99.90;;;;;;4934292;29;20182;-82
2022/09/09 04:04:27;;;;;;;1.85;0.70;;;14.30;99.90;;;;;;4939035;29;20197;-85
2022/09/09 04:06:53;;;;;;;2.95;0.90;;;14.30;99.90;;;;;;4938829;29;20182;-86
2022/09/09 04:09:19;;;;;;;2.15;0.77;;;14.30;99.90;;;;;;4938427;29;20186;-87
2022/09/09 04:11:45;;;;;;;3.25;0.73;;;14.20;99.90;;;;;;4938569;29;20485;-82
2022/09/09 04:14:12;;;;;;;2.00;0.70;;;14.20;99.90;;;;;;4938832;29;20241;-83
2022/09/09 04:16:38;;;;;;;4.20;0.90;;;14.20;99.90;;;;;;4938374;29;20233;-81
2022/09/09 04:19:04;;;;;;;2.95;0.88;;;14.20;99.90;;;;;;4939054;29;20189;-82
2022/09/09 04:21:30;;;;;;;4.32;0.90;;;14.20;99.90;;;;;;4938903;29;20569;-82
2022/09/09 04:23:56;;;;;;;4.65;1.02;;;14.20;99.90;;;;;;4938988;29;20194;-80
2022/09/09 04:26:22;;;;;;;1.05;0.80;;;14.20;99.90;;;;;;4938817;29;20508;-82
2022/09/09 04:28:48;;;;;;;5.93;1.27;;;14.10;99.90;;;;;;4938455;29;20229;-82
2022/09/09 04:31:19;;;;;;;3.85;0.95;;;14.20;99.90;;;;;;4936506;29;20213;-85
2022/09/09 04:33:46;;;;;;;2.13;0.65;;;14.10;99.90;;;;;;4938793;29;20225;-84
2022/09/09 04:36:12;;;;;;;2.55;0.70;;;14.20;99.90;;;;;;4938794;29;20178;-82
2022/09/09 04:38:39;;;;;;;9.30;0.80;;;14.20;99.90;;;;;;4938419;29;20182;-87
2022/09/09 04:41:05;;;;;;;6.45;0.82;;;14.20;99.90;;;;;;4938486;29;20196;-82
2022/09/09 04:43:31;;;;;;;2.45;0.98;;;14.20;99.90;;;;;;4938430;29;20194;-83
2022/09/09 04:45:59;;;;;;;1.15;0.60;;;14.20;99.90;;;;;;4936453;29;20205;-80
2022/09/09 04:48:25;;;;;;;4.38;0.70;;;14.30;99.90;;;;;;4937286;29;20237;-83
2022/09/09 04:50:55;;;;;;;3.53;0.85;;;14.30;99.90;;;;;;4938493;29;20186;-81
2022/09/09 04:53:21;;;;;;;2.88;1.00;;;14.40;99.90;;;;;;4938186;29;20731;-80
2022/09/09 04:55:48;;;;;;;3.67;0.70;;;14.40;99.90;;;;;;4938361;29;20182;-80
2022/09/09 04:58:14;;;;;;;1.92;1.00;;;14.40;99.90;;;;;;4956670;29;20192;-81
2022/09/09 05:00:39;;;;;;;5.55;0.90;;;14.40;99.90;;;;;;4956834;28;20181;-80
2022/09/09 05:03:08;;;;;;;6.88;0.95;;;14.40;99.90;;;;;;4956190;29;20624;-80
2022/09/09 05:05:35;;;;;;;2.15;1.00;;;14.40;99.90;;;;;;4956728;28;20186;-80
2022/09/09 05:08:02;;;;;;;3.60;0.90;;;14.30;99.90;;;;;;4956837;29;20695;-80
2022/09/09 05:10:28;;;;;;;4.55;1.10;;;14.40;99.90;;;;;;4956549;29;20193;-80
2022/09/09 05:12:54;;;;;;;5.07;0.95;;;14.40;99.90;;;;;;4956313;28;20224;-84
2022/09/09 05:15:20;;;;;;;3.55;0.88;;;14.40;99.90;;;;;;4956187;28;20291;-81
2022/09/09 05:17:46;;;;;;;2.33;0.82;;;14.50;99.90;;;;;;4955046;28;20217;-81
2022/09/09 05:20:12;;;;;;;3.38;0.95;;;14.50;99.90;;;;;;4937874;29;20604;-83
2022/09/09 05:22:37;;;;;;;2.20;0.88;;;14.60;99.90;;;;;;4937814;29;20633;-85
2022/09/09 05:25:04;;;;;;;5.20;1.00;;;14.60;99.90;;;;;;4937282;29;20237;-85
2022/09/09 05:27:31;;;;;;;1.25;0.80;;;14.60;99.90;;;;;;4937546;29;20930;-84
2022/09/09 05:29:57;;;;;;;3.15;0.90;;;14.70;99.90;;;;;;4936217;29;20194;-80
2022/09/09 05:32:24;;;;;;;3.70;0.75;;;14.70;99.90;;;;;;4936984;29;20178;-80
2022/09/09 05:34:49;;;;;;;3.03;1.00;;;14.80;99.90;;;;;;4937508;29;20584;-80
2022/09/09 05:37:16;;;;;;;3.22;1.00;;;14.80;99.90;;;;;;4937235;29;20185;-80
2022/09/09 05:39:42;;;;;;;2.63;0.95;;;14.90;99.90;;;;;;4937400;29;20225;-80
2022/09/09 05:42:07;;;;;;;2.95;0.80;;;14.90;99.90;;;;;;4937097;29;20193;-80
2022/09/09 05:44:33;;;;;;;3.38;1.20;;;14.90;99.90;;;;;;4930947;29;20265;-80
2022/09/09 05:46:59;;;;;;;1.63;0.90;;;15.00;99.90;;;;;;4937134;29;20186;-79
2022/09/09 05:49:25;;;;;;;3.45;1.00;;;15.00;99.90;;;;;;4937208;29;20186;-79
2022/09/09 05:51:51;;;;;;;1.80;0.98;;;15.10;99.90;;;;;;4937252;29;20174;-80
2022/09/09 05:54:17;;;;;;;3.83;1.17;;;15.10;99.90;;;;;;4937220;29;20707;-79
2022/09/09 05:56:42;;;;;;;2.50;0.93;;;15.10;99.90;;;;;;4931704;29;20633;-80
2022/09/09 05:59:08;;;;;;;3.30;1.08;;;15.20;99.90;;;;;;4926712;29;20190;-80
2022/09/09 06:01:38;;;;;;;3.78;1.00;;;15.20;99.90;;;;;;4928189;29;20229;-80
2022/09/09 06:04:03;;;;;;;3.33;1.15;;;15.20;99.90;;;;;;4937252;29;20159;-80
2022/09/09 06:06:36;;;;;;;4.60;1.10;;;15.20;99.90;;;;;;4936873;29;20719;-80
2022/09/09 06:09:06;;;;;;;1.63;0.88;;;15.30;99.90;;;;;;4936684;29;20178;-80
2022/09/09 06:11:32;;;;;;;3.30;1.35;;;15.30;99.90;;;;;;4935542;28;20217;-80
2022/09/09 06:13:59;;;;;;;3.55;0.88;;;15.30;99.90;;;;;;4936983;29;20201;-80
2022/09/09 06:16:26;;;;;;;3.58;0.98;;;15.30;99.90;;;;;;4936433;29;20233;-80
2022/09/09 06:18:56;;;;;;;3.15;0.77;;;15.40;99.90;;;;;;4936911;29;20529;-80
2022/09/09 06:21:34;;;;;;;4.63;1.00;;;15.40;99.90;;;;;;4936701;29;20257;-81
2022/09/09 06:24:00;;;;;;;4.53;1.27;;;15.50;99.90;;;;;;4936840;29;20173;-80
2022/09/09 06:26:31;;;;;;;2.55;0.98;;;15.50;99.90;;;;;;4935886;29;20177;-80
2022/09/09 06:28:58;;;;;;;4.85;1.13;;;15.60;99.90;;;;;;4936802;29;20176;-86
2022/09/09 06:31:26;;;;;;;3.40;1.13;;;15.60;99.90;;;;;;4936643;29;20570;-81
2022/09/09 06:33:54;;;;;;;2.65;0.88;;;15.70;99.90;;;;;;4936876;29;20194;-80
2022/09/09 06:36:23;;;;;;;3.33;1.27;;;15.60;99.90;;;;;;4936992;29;20209;-81
2022/09/09 06:38:49;;;;;;;4.45;0.98;;;15.60;99.90;;;;;;4936655;29;20526;-81
2022/09/09 06:41:18;;;;;;;4.13;1.20;;;15.60;99.90;;;;;;4936703;29;20189;-80
2022/09/09 06:43:44;;;;;;;4.00;1.42;;;15.60;99.90;;;;;;4935366;29;20632;-80
2022/09/09 06:46:18;;;;;;;3.00;1.00;;;15.60;99.90;;;;;;4935556;29;20601;-82
2022/09/09 06:48:45;;;;;;;5.35;1.10;;;15.70;99.90;;;;;;4936396;29;20162;-81
2022/09/09 06:51:14;;;;;;;5.65;1.17;;;15.70;99.90;;;;;;4936371;29;20182;-80
2022/09/09 06:53:41;;;;;;;2.85;0.88;;;15.70;99.90;;;;;;4936468;29;20296;-80
2022/09/09 06:56:10;;;;;;;4.35;1.20;;;15.80;99.90;;;;;;4936433;29;20197;-80
2022/09/09 06:58:45;;;;;;;3.33;1.08;;;15.90;99.90;;;;;;4936292;29;20233;-85
2022/09/09 07:01:13;;;;;;;4.43;1.15;;;15.90;99.90;;;;;;4936385;29;20605;-81
2022/09/09 07:03:40;;;;;;;6.00;1.30;;;16.00;99.90;;;;;;4936680;29;20269;-85
2022/09/09 07:06:07;;;;;;;7.18;1.17;;;16.10;99.90;;;;;;4935292;28;20302;-91
2022/09/09 07:08:33;;;;;;;2.85;1.00;;;16.20;99.90;;;;;;4939049;29;20232;-82
2022/09/09 07:11:04;;;;;;;3.53;0.90;;;16.30;99.90;;;;;;4955448;28;20250;-82
2022/09/09 07:13:31;;;;;;;2.00;0.80;;;16.40;99.90;;;;;;4955164;28;20204;-82
2022/09/09 07:16:07;;;;;;;2.83;1.10;;;16.50;99.90;;;;;;4952111;29;20240;-86
2022/09/09 07:18:34;;;;;;;4.57;1.10;;;16.60;99.90;;;;;;4936376;29;20225;-92
2022/09/09 07:21:01;;;;;;;1.92;0.93;;;16.60;99.90;;;;;;4935332;28;20193;-91
2022/09/09 07:23:28;;;;;;;5.55;1.33;;;16.70;99.90;;;;;;4936423;28;20483;-89
2022/09/09 07:25:54;;;;;;;4.75;0.98;;;16.80;99.90;;;;;;4935446;29;20261;-83
2022/09/09 07:28:20;;;;;;;5.55;1.25;;;16.90;99.90;;;;;;4932357;29;20725;-84
2022/09/09 07:30:56;;;;;;;5.18;1.10;;;17.00;99.90;;;;;;4916279;29;20178;-83
2022/09/09 07:33:23;;;;;;;5.68;1.50;;;17.10;99.90;;;;;;4917295;29;20206;-84
2022/09/09 07:35:49;;;;;;;5.80;1.20;;;17.20;99.90;;;;;;4917915;29;20218;-85
2022/09/09 07:38:15;;;;;;;5.40;1.20;;;17.20;99.90;;;;;;4920570;29;20187;-85
2022/09/09 07:40:41;;;;;;;2.63;1.08;;;17.30;99.90;;;;;;4938868;29;20178;-82
2022/09/09 07:43:07;;;;;;;3.60;1.10;;;17.40;99.90;;;;;;4940164;29;20240;-83
2022/09/09 07:45:34;;;;;;;4.93;1.33;;;17.30;99.90;;;;;;4938725;29;20185;-83
2022/09/09 07:48:00;;;;;;;5.80;1.30;;;17.30;99.90;;;;;;4919032;29;20625;-82
2022/09/09 07:50:26;;;;;;;4.30;1.00;;;17.30;99.90;;;;;;4920700;29;20605;-86
2022/09/09 07:52:53;;;;;;;4.32;1.13;;;17.20;99.90;;;;;;4937148;29;20189;-92
2022/09/09 07:55:19;;;;;;;3.97;1.08;;;17.20;99.90;;;;;;4939982;29;20210;-89
2022/09/09 07:57:45;;;;;;;5.55;1.40;;;17.30;99.90;;;;;;4938310;29;20193;-81
2022/09/09 08:00:12;;;;;;;5.00;1.38;;;17.30;99.90;;;;;;4939181;29;20178;-83
2022/09/09 08:02:38;;;;;;;4.00;1.20;;;17.50;99.90;;;;;;4937992;29;20185;-82
2022/09/09 08:05:05;;;;;;;3.80;1.27;;;17.60;99.90;;;;;;4939506;28;20159;-82
2022/09/09 08:07:31;;;;;;;8.40;1.63;;;17.70;99.90;;;;;;4939244;29;20174;-83
2022/09/09 08:09:57;;;;;;;3.70;1.17;;;17.70;99.90;;;;;;4938818;29;20516;-81
2022/09/09 08:12:23;;;;;;;10.02;1.00;;;17.70;99.90;;;;;;4937812;29;20182;-83
2022/09/09 08:14:48;;;;;;;5.38;1.23;;;17.70;99.90;;;;;;4938974;29;20778;-82
2022/09/09 08:17:14;;;;;;;3.10;0.80;;;17.70;99.90;;;;;;4938855;29;20222;-82
2022/09/09 08:19:40;;;;;;;6.22;1.20;;;17.70;99.90;;;;;;4938902;29;20218;-82
2022/09/09 08:22:06;;;;;;;6.40;0.95;;;17.70;99.90;;;;;;4937716;28;20268;-81
2022/09/09 08:24:31;;;;;;;5.50;0.95;;;17.70;99.90;;;;;;4938550;28;20185;-81
2022/09/09 08:26:57;;;;;;;3.60;1.00;;;17.70;99.90;;;;;;4938921;29;20175;-81
2022/09/09 08:29:23;;;;;;;6.22;1.10;;;17.80;99.90;;;;;;4938954;29;20182;-82
2022/09/09 08:31:54;;;;;;;19.92;2.92;;;18.00;99.90;;;;;;4938594;29;20170;-81
2022/09/09 08:34:20;;;;;;;8.52;1.30;;;18.30;99.90;;;;;;4937362;29;20221;-86
2022/09/09 08:36:48;;;;;;;5.20;1.45;;;18.40;99.90;;;;;;4937405;29;20178;-82
2022/09/09 08:39:15;;;;;;;3.67;1.20;;;18.60;99.90;;;;;;4938880;29;20597;-82
2022/09/09 08:41:53;;;;;;;4.75;1.35;;;18.60;99.90;;;;;;4937177;29;20190;-81
2022/09/09 08:44:50;;;;;;;4.40;1.20;;;18.80;99.90;;;;;;4938690;29;20162;-81
2022/09/09 08:47:28;;;;;;;5.97;1.50;;;18.90;99.90;;;;;;4938148;29;20181;-82
2022/09/09 08:50:01;;;;;;;5.90;1.30;;;18.90;99.90;;;;;;4938004;29;20177;-83
2022/09/09 08:52:49;;;;;;;2.95;0.80;;;18.80;99.90;;;;;;4937238;29;20192;-80
2022/09/09 08:55:26;;;;;;;3.10;0.75;;;18.70;99.90;;;;;;4936592;29;20206;-82
2022/09/09 08:58:00;;;;;;;4.22;1.10;;;18.70;99.90;;;;;;4938237;29;20193;-82
2022/09/09 09:00:44;;;;;;;3.40;1.00;;;18.90;99.90;;;;;;4937505;28;20261;-84
2022/09/09 09:03:22;;;;;;;6.10;1.17;;;19.10;99.90;;;;;;4936791;29;20625;-82
2022/09/09 09:05:58;;;;;;;4.03;1.13;;;19.20;99.90;;;;;;4947739;29;20201;-83
2022/09/09 09:08:40;;;;;;;3.05;1.15;;;19.40;99.90;;;;;;4955945;28;20166;-83
2022/09/09 09:11:06;;;;;;;4.50;0.82;;;19.70;99.90;;;;;;4957182;28;20165;-82
2022/09/09 09:14:02;;;;;;;3.67;0.90;;;19.70;99.90;;;;;;4957246;28;20240;-83
2022/09/09 09:16:54;;;;;;;2.58;0.70;;;19.70;99.90;;;;;;4949812;29;20684;-84
2022/09/09 09:19:22;;;;;;;1.92;0.98;;;19.60;99.90;;;;;;4930974;29;20604;-85
2022/09/09 09:22:15;;;;;;;4.20;0.65;;;19.60;99.90;;;;;;4936588;29;20218;-85
2022/09/09 09:24:51;;;;;;;2.13;0.70;;;19.70;99.90;;;;;;4932186;29;20206;-87
2022/09/09 09:27:36;;;;;;;5.13;1.02;;;19.80;99.90;;;;;;4937841;29;20190;-87
2022/09/09 09:30:13;;;;;;;2.92;1.00;;;19.80;99.90;;;;;;4937689;29;20197;-84
2022/09/09 09:32:43;;;;;;;4.53;0.80;;;19.80;99.90;;;;;;4937519;29;20181;-84
2022/09/09 09:35:13;;;;;;;3.20;0.80;;;19.90;99.90;;;;;;4936359;29;20205;-84
2022/09/09 09:37:43;;;;;;;4.22;0.85;;;20.00;99.90;;;;;;4936143;29;20182;-83
2022/09/09 09:40:14;;;;;;;2.40;0.73;;;20.10;99.90;;;;;;4937732;29;20166;-84
2022/09/09 09:42:59;;;;;;;2.97;0.75;;;20.20;99.90;;;;;;4936331;29;20186;-84
2022/09/09 09:45:44;;;;;;;4.65;0.90;;;20.30;99.90;;;;;;4935975;29;20632;-83
2022/09/09 09:48:12;;;;;;;1.85;0.70;;;20.50;99.90;;;;;;4916656;29;20189;-84
2022/09/09 09:50:56;;;;;;;3.17;0.70;;;20.50;99.90;;;;;;4917213;29;20277;-84
2022/09/09 09:53:25;;;;;;;3.30;0.93;;;20.50;99.90;;;;;;4918276;29;20705;-85
2022/09/09 09:55:59;;;;;;;3.97;1.10;;;20.60;99.90;;;;;;4951174;29;20197;-84
2022/09/09 09:58:33;;;;;;;3.40;0.90;;;20.70;99.90;;;;;;4956562;28;20197;-84
2022/09/09 10:01:00;;;;;;;2.65;0.88;;;20.70;99.90;;;;;;4955295;28;20168;-85
2022/09/09 10:03:32;;;;;;;3.72;0.90;;;20.70;99.90;;;;;;4956008;28;20209;-84
2022/09/09 10:05:57;;;;;;;2.35;0.70;;;20.70;99.90;;;;;;4956252;28;20178;-84
2022/09/09 10:08:25;;;;;;;10.48;1.10;;;20.60;99.90;;;;;;4956304;28;20560;-84
2022/09/09 10:11:04;;;;;;;4.22;0.88;;;20.30;99.90;;;;;;4955813;29;20244;-85
2022/09/09 10:13:54;;;;;;;3.45;1.10;;;20.10;99.90;;;;;;4955956;29;20540;-83
2022/09/09 10:16:35;;;;;;;4.80;1.10;;;20.10;99.90;;;;;;4950432;28;20237;-83
2022/09/09 10:19:15;;;;;;;1.92;0.73;;;20.00;99.90;;;;;;4935699;28;20178;-84
2022/09/09 10:21:48;;;;;;;3.45;0.80;;;19.90;99.90;;;;;;4935691;29;20174;-85
2022/09/09 10:24:29;;;;;;;2.10;0.77;;;19.90;99.90;;;;;;4936887;29;20174;-85
2022/09/09 10:27:16;;;;;;;3.13;0.80;;;19.70;99.90;;;;;;4936593;29;20166;-85
2022/09/09 10:30:12;;;;;;;5.43;0.73;;;19.60;99.90;;;;;;4935389;28;20174;-85
2022/09/09 10:32:39;;;;;;;2.30;0.93;;;19.70;99.90;;;;;;4934984;29;20621;-85
2022/09/09 10:35:36;;;;;;;4.60;0.90;;;20.00;99.90;;;;;;4935441;29;20224;-86
2022/09/09 10:38:29;;;;;;;2.83;0.90;;;20.30;99.90;;;;;;4922999;29;20497;-85
2022/09/09 10:40:56;;;;;;;3.78;1.00;;;20.60;99.90;;;;;;4936714;29;20174;-84
2022/09/09 10:44:00;;;;;;;4.55;0.90;;;20.80;99.90;;;;;;4936502;29;20185;-85
2022/09/09 10:46:56;;;;;;;3.20;0.85;;;20.90;99.90;;;;;;4936454;29;20188;-84
2022/09/09 10:50:00;;;;;;;6.78;0.95;;;20.90;99.90;;;;;;4936394;29;20225;-85
2022/09/09 10:52:38;;;;;;;1.83;0.88;;;21.00;99.90;;;;;;4936151;29;20189;-87
2022/09/09 10:55:16;;;;;;;3.67;1.10;;;21.00;99.90;;;;;;4934894;29;20216;-86
2022/09/09 10:57:48;;;;;;;6.20;0.98;;;21.10;99.90;;;;;;4935322;29;20229;-85
2022/09/09 11:00:20;;;;;;;2.55;0.80;;;21.10;99.90;;;;;;4935123;29;20193;-85
2022/09/09 11:03:12;;;;;;;2.67;0.88;;;21.00;99.90;;;;;;4934776;29;20174;-83
2022/09/09 11:05:52;;;;;;;2.92;1.00;;;20.80;99.90;;;;;;4935830;29;20188;-85
2022/09/09 11:08:20;;;;;;;4.00;1.27;;;20.80;99.90;;;;;;4935158;29;20264;-84
2022/09/09 11:11:21;;;;;;;3.15;0.73;;;20.80;99.90;;;;;;4934862;29;20194;-85
2022/09/09 11:13:48;;;;;;;6.78;1.40;;;20.80;99.90;;;;;;4939240;29;20202;-86
2022/09/09 11:16:38;;;;;;;3.90;1.10;;;21.20;99.90;;;;;;4938593;29;20244;-86
2022/09/09 11:19:34;;;;;;;5.25;1.35;;;21.40;99.90;;;;;;4938738;29;20204;-85
2022/09/09 11:22:19;;;;;;;3.63;1.30;;;21.50;99.90;;;;;;4938909;28;20188;-84
2022/09/09 11:24:50;;;;;;;6.35;1.23;;;21.40;99.90;;;;;;4938426;29;20534;-83
2022/09/09 11:27:25;;;;;;;5.15;1.17;;;21.20;99.90;;;;;;4940098;29;20245;-86
2022/09/09 11:30:11;;;;;;;4.22;1.15;;;21.00;99.90;;;;;;4938669;29;20204;-84
2022/09/09 11:33:12;;;;;;;6.93;1.17;;;20.90;99.90;;;;;;4939660;29;20184;-85
2022/09/09 11:36:02;;;;;;;4.55;1.08;;;20.70;99.90;;;;;;4938284;29;20201;-84
2022/09/09 11:38:47;;;;;;;2.55;0.73;;;20.60;99.90;;;;;;4938563;28;20260;-84
2022/09/09 11:41:15;;;;;;;4.60;1.10;;;20.50;99.90;;;;;;4939910;29;20170;-85
2022/09/09 11:43:46;;;;;;;4.82;1.00;;;20.40;99.90;;;;;;4938581;29;20189;-84
2022/09/09 11:46:16;;;;;;;3.38;0.88;;;20.40;99.90;;;;;;4939142;29;20178;-85
2022/09/09 11:48:45;;;;;;;7.65;1.23;;;20.30;99.90;;;;;;4939385;29;20178;-85
2022/09/09 11:51:25;;;;;;;4.00;1.20;;;20.30;99.90;;;;;;4938321;29;20582;-85
2022/09/09 11:53:58;;;;;;;5.00;1.20;;;20.30;99.90;;;;;;4939531;29;20564;-85
2022/09/09 11:56:31;;;;;;;5.20;1.20;;;20.20;99.90;;;;;;4937851;29;20191;-83
2022/09/09 11:59:01;;;;;;;5.82;1.38;;;20.10;99.90;;;;;;4937650;29;20645;-84
2022/09/09 12:01:37;;;;;;;5.00;0.90;;;20.10;99.90;;;;;;4937698;29;20629;-84
2022/09/09 12:04:17;;;;;;;15.70;1.48;;;19.90;99.90;;;;;;4939360;29;20217;-85
2022/09/09 12:06:58;;;;;;;4.30;1.10;;;19.70;99.90;;;;;;4938427;29;20213;-85
2022/09/09 12:09:33;;;;;;;6.95;1.67;;;19.50;99.90;;;;;;4938005;29;20186;-85
2022/09/09 12:12:23;;;;;;;13.95;1.60;;;19.20;99.90;;;;;;4937104;29;20185;-85
2022/09/09 12:15:07;;;;;;;10.55;2.50;;;19.20;99.90;;;;;;4939185;29;20212;-86
2022/09/09 12:17:51;;;;;;;13.27;2.15;;;19.10;99.90;;;;;;4937580;29;20210;-86
2022/09/09 12:20:18;;;;;;;6.47;1.75;;;19.10;99.90;;;;;;4939321;29;20199;-86
2022/09/09 12:23:02;;;;;;;8.95;1.95;;;19.10;99.90;;;;;;4937130;28;20182;-86
2022/09/09 12:25:55;;;;;;;10.68;2.50;;;19.10;99.90;;;;;;4938670;29;20174;-87
2022/09/09 12:28:42;;;;;;;7.57;1.85;;;19.30;99.90;;;;;;4937391;28;20177;-87
2022/09/09 12:31:30;;;;;;;46.42;6.25;;;19.40;99.90;;;;;;4938729;29;20170;-87
2022/09/09 12:34:24;;;;;;;20.45;3.30;;;19.40;99.90;;;;;;4937497;29;20202;-86
2022/09/09 12:36:57;;;;;;;6.25;1.70;;;19.50;99.90;;;;;;4932148;29;20236;-86
2022/09/09 12:39:31;;;;;;;25.83;2.97;;;19.60;99.90;;;;;;4937424;29;20174;-86
2022/09/09 12:41:57;;;;;;;3.00;1.17;;;19.70;99.90;;;;;;4937733;29;20598;-86
2022/09/09 12:44:29;;;;;;;3.72;1.08;;;19.80;99.90;;;;;;4937355;29;20238;-86
2022/09/09 12:46:59;;;;;;;3.88;1.40;;;19.90;99.90;;;;;;4935935;29;20182;-86
2022/09/09 12:49:33;;;;;;;2.92;1.20;;;19.90;99.90;;;;;;4938447;29;20174;-85
2022/09/09 12:52:06;;;;;;;5.53;1.20;;;20.10;99.90;;;;;;4937023;29;20185;-86
2022/09/09 12:54:36;;;;;;;5.05;1.23;;;20.10;99.90;;;;;;4937218;29;20202;-85
2022/09/09 12:57:03;;;;;;;3.47;1.00;;;20.10;99.90;;;;;;4937149;29;20193;-86
2022/09/09 12:59:37;;;;;;;4.43;1.00;;;20.20;99.90;;;;;;4937081;29;20213;-87
2022/09/09 13:02:11;;;;;;;3.03;1.08;;;20.20;99.90;;;;;;4938116;29;20198;-85
2022/09/09 13:04:37;;;;;;;10.57;1.20;;;20.10;99.90;;;;;;4938200;29;20165;-86
2022/09/09 13:07:09;;;;;;;2.25;0.80;;;20.00;99.90;;;;;;4938345;29;20181;-84
2022/09/09 13:09:35;;;;;;;12.05;1.20;;;19.90;99.90;;;;;;4937366;29;20640;-85
2022/09/09 13:12:03;;;;;;;7.28;1.17;;;19.80;99.90;;;;;;4936752;29;20193;-85
2022/09/09 13:14:34;;;;;;;1.50;0.70;;;19.70;99.90;;;;;;4937077;29;20257;-84
2022/09/09 13:17:05;;;;;;;3.17;0.98;;;19.60;99.90;;;;;;4934111;29;20241;-85